createdAt,value
2018-10-18T00:00:44.355Z,51.60
2018-10-18T00:03:12.282Z,52.37
2018-10-18T00:05:40.148Z,54.40
2018-10-18T00:08:08.092Z,54.77
2018-10-18T00:10:36.038Z,54.17
2018-10-18T00:13:04.352Z,55.07
2018-10-18T00:15:32.251Z,54.13
2018-10-18T00:18:00.480Z,49.70
2018-10-18T00:20:28.920Z,50.47
2018-10-18T00:22:56.808Z,48.60
2018-10-18T00:25:24.708Z,49.77
2018-10-18T00:27:52.591Z,50.27
2018-10-18T00:30:20.539Z,47.77
2018-10-18T00:32:48.410Z,49.17
2018-10-18T00:35:16.299Z,49.37
2018-10-18T00:37:44.216Z,51.70
2018-10-18T00:40:12.868Z,52.47
2018-10-18T00:42:41.221Z,51.70
2018-10-18T00:45:09.919Z,51.97
2018-10-18T00:47:37.867Z,53.60
2018-10-18T00:50:07.084Z,56.03
2018-10-18T00:52:34.951Z,58.83
2018-10-18T00:55:02.840Z,57.30
2018-10-18T00:57:30.736Z,59.40
2018-10-18T00:59:58.994Z,58.40
2018-10-18T01:02:26.852Z,55.27
2018-10-18T01:04:54.744Z,60.27
2018-10-18T01:07:22.650Z,59.30
2018-10-18T01:09:50.556Z,63.00
2018-10-18T01:12:18.566Z,60.43
2018-10-18T01:14:46.400Z,63.27
2018-10-18T01:17:14.303Z,65.27
2018-10-18T01:19:42.212Z,61.37
2018-10-18T01:22:10.143Z,65.37
2018-10-18T01:24:38.027Z,63.23
2018-10-18T01:27:06.615Z,59.97
2018-10-18T01:29:34.556Z,61.23
2018-10-18T01:32:02.547Z,60.57
2018-10-18T01:34:30.428Z,60.67
2018-10-18T01:36:58.321Z,61.23
2018-10-18T01:39:26.227Z,60.93
2018-10-18T01:41:54.161Z,62.07
2018-10-18T01:44:22.050Z,58.80
2018-10-18T01:46:50.007Z,61.00
2018-10-18T01:49:17.930Z,56.13
2018-10-18T01:51:45.823Z,54.60
2018-10-18T01:54:13.793Z,55.43
2018-10-18T01:56:41.655Z,55.03
2018-10-18T01:59:09.558Z,53.20
2018-10-18T02:01:37.486Z,53.47
2018-10-18T02:04:05.998Z,52.43
2018-10-18T02:06:33.982Z,50.47
2018-10-18T02:09:01.917Z,52.93
2018-10-18T02:11:29.840Z,50.90
2018-10-18T02:13:57.750Z,51.93
2018-10-18T02:16:25.691Z,51.17
2018-10-18T02:18:53.610Z,49.27
2018-10-18T02:21:21.567Z,49.10
2018-10-18T02:23:49.487Z,50.03
2018-10-18T02:26:17.387Z,48.63
2018-10-18T02:28:45.306Z,48.13
2018-10-18T02:31:13.216Z,49.87
2018-10-18T02:33:41.100Z,48.43
2018-10-18T02:36:09.091Z,47.37
2018-10-18T02:38:36.956Z,46.77
2018-10-18T02:41:04.884Z,46.97
2018-10-18T02:43:32.790Z,47.10
2018-10-18T02:46:00.691Z,48.37
2018-10-18T02:48:28.588Z,47.47
2018-10-18T02:50:56.495Z,47.13
2018-10-18T02:53:24.399Z,46.87
2018-10-18T02:55:52.290Z,47.37
2018-10-18T02:58:20.187Z,47.13
2018-10-18T03:00:48.088Z,46.00
2018-10-18T03:03:15.982Z,45.33
2018-10-18T03:05:43.926Z,43.93
2018-10-18T03:08:11.833Z,43.53
2018-10-18T03:10:39.741Z,44.20
2018-10-18T03:13:07.663Z,45.33
2018-10-18T03:15:35.588Z,44.93
2018-10-18T03:18:03.523Z,44.27
2018-10-18T03:20:31.438Z,45.83
2018-10-18T03:22:59.346Z,46.53
2018-10-18T03:25:27.256Z,47.47
2018-10-18T03:27:55.211Z,47.73
2018-10-18T03:30:23.180Z,49.90
2018-10-18T03:32:51.096Z,48.27
2018-10-18T03:35:19.003Z,47.97
2018-10-18T03:37:46.939Z,48.17
2018-10-18T03:40:14.855Z,47.20
2018-10-18T03:42:42.760Z,45.53
2018-10-18T03:45:10.695Z,45.77
2018-10-18T03:47:38.649Z,47.83
2018-10-18T03:50:06.596Z,46.70
2018-10-18T03:52:34.502Z,49.33
2018-10-18T03:55:02.464Z,49.27
2018-10-18T03:57:30.532Z,50.57
2018-10-18T03:59:58.465Z,49.00
2018-10-18T04:02:26.400Z,50.83
2018-10-18T04:04:54.307Z,49.97
2018-10-18T04:07:22.264Z,50.60
2018-10-18T04:09:50.165Z,50.13
2018-10-18T04:12:18.211Z,49.87
2018-10-18T04:14:46.002Z,56.17
2018-10-18T04:17:13.904Z,54.87
2018-10-18T04:19:41.803Z,52.17
2018-10-18T04:22:09.728Z,54.07
2018-10-18T04:24:37.632Z,54.83
2018-10-18T04:27:05.548Z,56.00
2018-10-18T04:29:33.557Z,52.60
2018-10-18T04:32:01.469Z,56.60
2018-10-18T04:34:29.407Z,56.90
2018-10-18T04:36:57.360Z,57.53
2018-10-18T04:39:25.278Z,58.77
2018-10-18T04:41:53.224Z,56.73
2018-10-18T04:44:21.107Z,57.50
2018-10-18T04:46:49.066Z,61.17
2018-10-18T04:49:16.972Z,58.23
2018-10-18T04:51:44.896Z,59.90
2018-10-18T04:54:12.823Z,59.93
2018-10-18T04:56:40.791Z,59.97
2018-10-18T04:59:08.647Z,57.87
2018-10-18T05:01:36.569Z,59.37
2018-10-18T05:04:04.708Z,62.03
2018-10-18T05:06:32.770Z,61.07
2018-10-18T05:09:00.951Z,61.77
2018-10-18T05:11:28.949Z,63.80
2018-10-18T05:13:56.799Z,59.97
2018-10-18T05:16:24.827Z,63.77
2018-10-18T05:18:52.767Z,65.93
2018-10-18T05:21:20.668Z,64.90
2018-10-18T05:23:48.662Z,65.67
2018-10-18T05:26:16.523Z,68.93
2018-10-18T05:28:44.448Z,65.13
2018-10-18T05:31:12.386Z,65.43
2018-10-18T05:33:40.339Z,68.00
2018-10-18T05:36:08.290Z,67.33
2018-10-18T05:38:36.220Z,68.27
2018-10-18T05:41:04.183Z,68.07
2018-10-18T05:43:32.120Z,68.00
2018-10-18T05:46:00.034Z,67.47
2018-10-18T05:48:27.956Z,66.83
2018-10-18T05:50:55.880Z,70.27
2018-10-18T05:53:23.792Z,70.20
2018-10-18T05:55:51.724Z,68.73
2018-10-18T05:58:19.655Z,70.80
2018-10-18T06:00:47.977Z,71.03
2018-10-18T06:03:15.863Z,73.47
2018-10-18T06:05:43.767Z,68.87
2018-10-18T06:08:11.705Z,72.50
2018-10-18T06:10:51.133Z,65.10
2018-10-18T06:13:19.116Z,61.07
2018-10-18T06:15:47.004Z,57.90
2018-10-18T06:18:14.915Z,55.03
2018-10-18T06:20:42.835Z,54.70
2018-10-18T06:23:10.828Z,53.57
2018-10-18T06:25:38.691Z,52.47
2018-10-18T06:28:06.887Z,51.43
2018-10-18T06:30:34.802Z,51.63
2018-10-18T06:33:02.778Z,51.37
2018-10-18T06:35:30.787Z,49.87
2018-10-18T06:37:58.732Z,51.80
2018-10-18T06:40:26.647Z,51.47
2018-10-18T06:42:54.661Z,50.03
2018-10-18T06:45:22.508Z,49.50
2018-10-18T06:47:50.539Z,49.43
2018-10-18T06:50:19.733Z,48.87
2018-10-18T06:52:47.611Z,49.23
2018-10-18T06:55:15.588Z,47.40
2018-10-18T06:57:44.025Z,48.53
2018-10-18T07:00:16.151Z,47.83
2018-10-18T07:02:44.644Z,46.17
2018-10-18T07:05:13.770Z,47.10
2018-10-18T07:07:41.987Z,46.20
2018-10-18T07:10:09.939Z,47.03
2018-10-18T07:12:38.459Z,46.03
2018-10-18T07:15:07.109Z,44.03
2018-10-18T07:17:35.477Z,44.33
2018-10-18T07:20:03.403Z,43.73
2018-10-18T07:22:31.332Z,42.90
2018-10-18T07:24:59.271Z,41.27
2018-10-18T07:27:27.185Z,41.83
2018-10-18T07:29:55.159Z,42.20
2018-10-18T07:32:23.221Z,43.43
2018-10-18T07:34:51.134Z,42.47
2018-10-18T07:37:19.048Z,42.53
2018-10-18T07:39:46.969Z,43.53
2018-10-18T07:42:14.961Z,43.83
2018-10-18T07:44:42.839Z,44.10
2018-10-18T07:47:10.744Z,43.93
2018-10-18T07:49:38.640Z,40.77
2018-10-18T07:52:06.912Z,41.73
2018-10-18T07:54:34.836Z,42.13
2018-10-18T07:57:02.751Z,41.57
2018-10-18T07:59:30.680Z,42.30
2018-10-18T08:01:58.585Z,41.17
2018-10-18T08:04:26.505Z,42.13
2018-10-18T08:06:54.458Z,41.03
2018-10-18T08:09:22.360Z,41.13
2018-10-18T08:11:50.331Z,41.33
2018-10-18T08:14:18.313Z,39.93
2018-10-18T08:16:46.240Z,39.77
2018-10-18T08:19:14.162Z,40.20
2018-10-18T08:21:42.104Z,40.50
2018-10-18T08:24:10.022Z,40.27
2018-10-18T08:26:37.939Z,40.37
2018-10-18T08:29:05.872Z,40.30
2018-10-18T08:31:33.860Z,40.43
2018-10-18T08:34:01.703Z,40.40
2018-10-18T08:36:29.660Z,40.40
2018-10-18T08:38:57.576Z,39.70
2018-10-18T08:41:25.499Z,40.40
2018-10-18T08:43:53.469Z,40.57
2018-10-18T08:46:21.361Z,40.50
2018-10-18T08:48:49.308Z,41.20
2018-10-18T08:51:17.253Z,41.77
2018-10-18T08:53:45.200Z,40.60
2018-10-18T08:56:13.128Z,42.47
2018-10-18T08:58:41.161Z,41.77
2018-10-18T09:01:09.175Z,42.57
2018-10-18T09:03:37.103Z,40.77
2018-10-18T09:06:05.155Z,42.07
2018-10-18T09:08:33.091Z,42.23
2018-10-18T09:11:01.039Z,43.87
2018-10-18T09:13:28.956Z,43.03
2018-10-18T09:15:56.922Z,41.83
2018-10-18T09:18:24.792Z,41.47
2018-10-18T09:20:52.729Z,41.53
2018-10-18T09:23:20.659Z,41.67
2018-10-18T09:25:48.615Z,39.53
2018-10-18T09:28:16.548Z,40.70
2018-10-18T09:30:44.474Z,38.60
2018-10-18T09:33:12.400Z,40.30
2018-10-18T09:35:40.352Z,41.30
2018-10-18T09:38:08.282Z,41.60
2018-10-18T09:40:36.195Z,42.53
2018-10-18T09:43:04.225Z,39.43
2018-10-18T09:45:32.082Z,38.50
2018-10-18T09:48:00.156Z,38.63
2018-10-18T09:50:28.060Z,37.97
2018-10-18T09:52:56.028Z,38.73
2018-10-18T09:55:23.927Z,38.40
2018-10-18T09:57:51.797Z,37.50
2018-10-18T10:01:26.830Z,40.20
2018-10-18T10:03:54.746Z,37.37
2018-10-18T10:06:22.686Z,38.27
2018-10-18T10:08:50.599Z,38.03
2018-10-18T10:11:18.496Z,39.23
2018-10-18T10:13:46.472Z,38.07
2018-10-18T10:16:15.160Z,37.07
2018-10-18T10:18:43.096Z,38.87
2018-10-18T10:21:11.007Z,43.00
2018-10-18T10:23:38.920Z,37.23
2018-10-18T10:26:06.866Z,36.13
2018-10-18T10:28:34.776Z,34.50
2018-10-18T10:31:02.736Z,31.97
2018-10-18T10:33:30.642Z,29.90
2018-10-18T10:35:58.587Z,28.30
2018-10-18T10:38:26.517Z,28.27
2018-10-18T10:40:54.500Z,28.47
2018-10-18T10:43:22.346Z,28.03
2018-10-18T10:45:50.350Z,27.63
2018-10-18T10:48:18.229Z,27.27
2018-10-18T10:50:46.101Z,25.07
2018-10-18T10:53:14.003Z,24.37
2018-10-18T10:55:41.940Z,24.00
2018-10-18T10:58:09.933Z,22.90
2018-10-18T11:01:26.155Z,23.83
2018-10-18T11:03:57.343Z,23.23
2018-10-18T11:06:25.516Z,22.33
2018-10-18T11:08:53.753Z,24.37
2018-10-18T11:11:22.198Z,25.17
2018-10-18T11:13:50.338Z,24.77
2018-10-18T11:16:18.271Z,23.17
2018-10-18T11:18:46.219Z,25.47
2018-10-18T11:21:15.555Z,26.13
2018-10-18T11:23:43.411Z,25.23
2018-10-18T11:26:11.465Z,23.27
2018-10-18T11:28:39.298Z,23.67
2018-10-18T11:31:07.255Z,24.37
2018-10-18T11:33:35.183Z,23.97
2018-10-18T11:36:03.258Z,23.30
2018-10-18T11:38:31.099Z,23.80
2018-10-18T11:40:59.012Z,22.73
2018-10-18T11:43:26.956Z,23.03
2018-10-18T11:45:54.889Z,22.57
2018-10-18T11:48:22.820Z,22.97
2018-10-18T11:50:50.750Z,23.20
2018-10-18T11:53:18.706Z,22.47
2018-10-18T11:55:46.637Z,23.23
2018-10-18T11:58:14.887Z,23.37
2018-10-18T12:00:43.675Z,22.73
2018-10-18T12:03:11.607Z,23.40
2018-10-18T12:05:39.588Z,22.97
2018-10-18T12:08:07.643Z,21.40
2018-10-18T12:10:35.455Z,21.13
2018-10-18T12:13:03.388Z,21.87
2018-10-18T12:15:31.335Z,22.90
2018-10-18T12:17:59.284Z,20.17
2018-10-18T12:20:27.234Z,22.10
2018-10-18T12:22:55.191Z,21.43
2018-10-18T12:25:23.066Z,21.97
2018-10-18T12:27:51.004Z,21.73
2018-10-18T12:30:18.927Z,21.37
2018-10-18T12:32:46.868Z,21.43
2018-10-18T12:35:14.850Z,22.10
2018-10-18T12:37:42.815Z,22.47
2018-10-18T12:40:10.783Z,23.93
2018-10-18T12:42:40.495Z,22.73
2018-10-18T12:45:09.602Z,23.67
2018-10-18T12:47:37.504Z,25.03
2018-10-18T12:50:05.746Z,26.70
2018-10-18T12:52:33.672Z,24.50
2018-10-18T12:55:01.716Z,24.70
2018-10-18T12:57:29.651Z,25.40
2018-10-18T12:59:57.572Z,24.93
2018-10-18T13:02:25.517Z,23.73
2018-10-18T13:04:53.403Z,23.97
2018-10-18T13:07:21.315Z,24.67
2018-10-18T13:09:49.241Z,25.23
2018-10-18T13:12:17.336Z,24.83
2018-10-18T13:14:45.129Z,24.07
2018-10-18T13:17:13.054Z,24.70
2018-10-18T13:19:40.988Z,23.50
2018-10-18T13:22:08.911Z,22.77
2018-10-18T13:24:37.109Z,24.93
2018-10-18T13:27:05.187Z,24.27
2018-10-18T13:29:33.116Z,23.93
2018-10-18T13:32:01.099Z,26.37
2018-10-18T13:34:29.003Z,26.13
2018-10-18T13:36:56.956Z,24.63
2018-10-18T13:39:24.939Z,22.57
2018-10-18T13:41:52.935Z,21.70
2018-10-18T13:44:20.812Z,23.03
2018-10-18T13:46:48.758Z,22.50
2018-10-18T13:49:16.686Z,23.10
2018-10-18T13:51:44.600Z,23.20
2018-10-18T13:54:12.590Z,22.97
2018-10-18T13:56:40.520Z,21.90
2018-10-18T13:59:19.746Z,22.47
2018-10-18T14:01:47.600Z,21.10
2018-10-18T14:04:15.529Z,22.57
2018-10-18T14:06:43.452Z,21.90
2018-10-18T14:09:11.367Z,21.43
2018-10-18T14:11:39.292Z,21.63
2018-10-18T14:14:07.241Z,21.00
2018-10-18T14:16:35.147Z,20.67
2018-10-18T14:19:03.051Z,20.07
2018-10-18T14:21:31.044Z,20.73
2018-10-18T14:23:58.959Z,20.70
2018-10-18T14:26:26.883Z,20.07
2018-10-18T14:28:54.863Z,19.00
2018-10-18T14:31:22.736Z,21.30
2018-10-18T14:33:50.668Z,19.83
2018-10-18T14:36:18.641Z,19.67
2018-10-18T14:38:46.649Z,17.60
2018-10-18T14:41:14.507Z,16.47
2018-10-18T14:43:42.480Z,16.07
2018-10-18T14:46:10.376Z,13.40
2018-10-18T14:48:38.517Z,12.90
2018-10-18T14:51:06.480Z,11.37
2018-10-18T14:53:34.382Z,11.30
2018-10-18T14:56:02.336Z,11.77
2018-10-18T14:58:30.225Z,10.80
2018-10-18T15:00:58.207Z,10.47
2018-10-18T15:03:26.164Z,10.20
2018-10-18T15:05:54.075Z,10.33
2018-10-18T15:08:21.981Z,9.50
2018-10-18T15:10:49.891Z,9.40
2018-10-18T15:13:17.816Z,9.03
2018-10-18T15:15:45.747Z,8.83
2018-10-18T15:18:13.652Z,9.17
2018-10-18T15:20:41.567Z,8.43
2018-10-18T15:23:09.568Z,8.70
2018-10-18T15:25:37.556Z,8.73
2018-10-18T15:28:05.361Z,9.13
2018-10-18T15:30:33.272Z,9.03
2018-10-18T15:33:01.232Z,8.47
2018-10-18T15:35:29.123Z,8.40
2018-10-18T15:37:57.131Z,9.13
2018-10-18T15:40:24.955Z,8.37
2018-10-18T15:42:53.154Z,8.37
2018-10-18T15:45:21.233Z,9.07
2018-10-18T15:47:49.121Z,9.07
2018-10-18T15:50:16.889Z,8.97
2018-10-18T15:52:44.798Z,8.07
2018-10-18T15:55:12.711Z,8.23
2018-10-18T15:57:40.615Z,9.23
2018-10-18T16:00:09.746Z,7.97
2018-10-18T16:02:37.600Z,8.73
2018-10-18T16:05:05.892Z,9.63
2018-10-18T16:07:33.699Z,9.03
2018-10-18T16:10:01.648Z,8.13
2018-10-18T16:12:29.630Z,8.47
2018-10-18T16:14:57.535Z,7.50
2018-10-18T16:17:25.437Z,7.40
2018-10-18T16:19:53.456Z,7.60
2018-10-18T16:22:21.358Z,7.87
2018-10-18T16:24:49.338Z,8.30
2018-10-18T16:27:17.264Z,7.60
2018-10-18T16:29:45.181Z,7.10
2018-10-18T16:32:13.214Z,7.20
2018-10-18T16:34:41.048Z,6.90
2018-10-18T16:37:08.950Z,6.43
2018-10-18T16:39:36.888Z,6.40
2018-10-18T16:42:05.302Z,5.87
2018-10-18T16:44:33.084Z,5.80
2018-10-18T16:47:01.020Z,5.73
2018-10-18T16:49:28.939Z,5.90
2018-10-18T16:51:56.869Z,5.57
2018-10-18T16:54:24.873Z,5.77
2018-10-18T16:56:52.702Z,5.60
2018-10-18T16:59:20.616Z,5.20
2018-10-18T17:01:48.561Z,5.83
2018-10-18T17:04:17.010Z,5.70
2018-10-18T17:06:44.832Z,5.10
2018-10-18T17:09:12.744Z,8.07
2018-10-18T17:11:40.700Z,6.37
2018-10-18T17:14:08.664Z,5.77
2018-10-18T17:16:36.563Z,5.27
2018-10-18T17:19:04.767Z,5.30
2018-10-18T17:21:32.688Z,8.77
2018-10-18T17:24:00.700Z,5.37
2018-10-18T17:26:28.624Z,4.90
2018-10-18T17:28:56.572Z,5.10
2018-10-18T17:31:24.790Z,6.60
2018-10-18T17:33:52.698Z,5.40
2018-10-18T17:36:20.697Z,5.67
2018-10-18T17:38:48.539Z,5.27
2018-10-18T17:41:16.452Z,5.33
2018-10-18T17:43:44.399Z,5.63
2018-10-18T17:46:12.381Z,5.40
2018-10-18T17:48:40.256Z,5.00
2018-10-18T17:51:08.183Z,4.80
2018-10-18T17:53:36.143Z,5.47
2018-10-18T17:56:04.084Z,4.80
2018-10-18T17:58:31.969Z,5.20
2018-10-18T18:00:59.894Z,5.67
2018-10-18T18:03:27.821Z,4.77
2018-10-18T18:05:55.857Z,4.83
2018-10-18T18:08:23.692Z,4.50
2018-10-18T18:10:51.606Z,5.13
2018-10-18T18:13:19.591Z,4.80
2018-10-18T18:15:47.585Z,4.60
2018-10-18T18:18:15.435Z,4.83
2018-10-18T18:20:43.381Z,5.03
2018-10-18T18:23:11.288Z,4.87
2018-10-18T18:25:39.279Z,5.07
2018-10-18T18:28:07.200Z,4.90
2018-10-18T18:30:35.124Z,6.70
2018-10-18T18:33:03.103Z,5.50
2018-10-18T18:35:31.015Z,5.40
2018-10-18T18:37:58.975Z,5.20
2018-10-18T18:40:26.893Z,5.70
2018-10-18T18:42:54.843Z,5.57
2018-10-18T18:45:24.926Z,5.77
2018-10-18T18:47:53.063Z,5.80
2018-10-18T18:50:20.981Z,5.57
2018-10-18T18:52:48.931Z,6.40
2018-10-18T18:55:16.843Z,6.27
2018-10-18T18:57:44.791Z,6.77
2018-10-18T19:00:12.805Z,6.73
2018-10-18T19:02:40.647Z,6.63
2018-10-18T19:05:09.159Z,6.57
2018-10-18T19:07:37.104Z,7.10
2018-10-18T19:10:05.566Z,7.57
2018-10-18T19:12:33.501Z,7.60
2018-10-18T19:15:01.422Z,7.30
2018-10-18T19:17:29.407Z,7.97
2018-10-18T19:19:57.324Z,7.10
2018-10-18T19:22:25.242Z,7.03
2018-10-18T19:24:53.607Z,7.27
2018-10-18T19:27:21.555Z,7.47
2018-10-18T19:29:49.541Z,8.77
2018-10-18T19:32:17.456Z,7.10
2018-10-18T19:34:45.789Z,7.73
2018-10-18T19:37:13.747Z,7.63
2018-10-18T19:39:41.660Z,8.20
2018-10-18T19:42:09.571Z,8.33
2018-10-18T19:44:37.516Z,8.33
2018-10-18T19:47:05.484Z,8.90
2018-10-18T19:49:33.408Z,8.87
2018-10-18T19:52:01.352Z,9.63
2018-10-18T19:54:29.230Z,9.23
2018-10-18T19:56:57.166Z,9.30
2018-10-18T19:59:25.104Z,9.77
2018-10-18T20:01:53.035Z,9.27
2018-10-18T20:04:20.959Z,10.27
2018-10-18T20:06:48.873Z,9.83
2018-10-18T20:09:17.275Z,9.63
2018-10-18T20:11:45.294Z,9.70
2018-10-18T20:14:13.217Z,9.47
2018-10-18T20:16:41.170Z,9.43
2018-10-18T20:19:09.091Z,10.13
2018-10-18T20:21:37.340Z,10.40
2018-10-18T20:24:05.918Z,10.40
2018-10-18T20:26:33.879Z,9.97
2018-10-18T20:29:01.747Z,9.73
2018-10-18T20:31:29.655Z,10.03
2018-10-18T20:33:57.564Z,11.20
2018-10-18T20:36:25.495Z,9.90
2018-10-18T20:38:53.547Z,11.37
2018-10-18T20:41:21.536Z,11.17
2018-10-18T20:43:49.481Z,11.20
2018-10-18T20:46:17.413Z,11.40
2018-10-18T20:48:45.343Z,10.90
2018-10-18T20:51:13.340Z,11.07
2018-10-18T20:53:41.205Z,11.23
2018-10-18T20:56:09.188Z,10.97
2018-10-18T20:58:37.176Z,12.30
2018-10-18T21:01:06.000Z,10.87
2018-10-18T21:03:33.931Z,11.63
2018-10-18T21:06:01.904Z,12.10
2018-10-18T21:08:29.803Z,11.67
2018-10-18T21:10:57.798Z,12.27
2018-10-18T21:13:26.268Z,12.50
2018-10-18T21:15:54.277Z,12.33
2018-10-18T21:18:22.245Z,12.37
2018-10-18T21:20:50.169Z,13.20
2018-10-18T21:23:18.098Z,13.23
2018-10-18T21:25:46.061Z,12.70
2018-10-18T21:28:13.991Z,12.47
2018-10-18T21:30:41.913Z,12.80
2018-10-18T21:33:09.952Z,13.23
2018-10-18T21:35:37.791Z,13.00
2018-10-18T21:38:05.953Z,13.10
2018-10-18T21:40:34.043Z,12.97
2018-10-18T21:43:01.979Z,13.47
2018-10-18T21:45:29.952Z,13.63
2018-10-18T21:47:58.020Z,14.00
2018-10-18T21:50:25.956Z,12.47
2018-10-18T21:52:53.905Z,12.40
2018-10-18T21:55:21.874Z,12.07
2018-10-18T21:57:49.800Z,12.03
2018-10-18T22:00:18.076Z,11.80
2018-10-18T22:02:46.743Z,11.77
2018-10-18T22:05:15.273Z,12.27
2018-10-18T22:07:43.726Z,12.63
2018-10-18T22:10:12.388Z,13.73
2018-10-18T22:12:40.323Z,14.60
2018-10-18T22:15:09.485Z,13.73
2018-10-18T22:17:37.372Z,16.47
2018-10-18T22:20:06.404Z,15.80
2018-10-18T22:22:34.331Z,15.80
2018-10-18T22:25:02.323Z,16.40
2018-10-18T22:27:30.431Z,15.90
2018-10-18T22:29:58.360Z,15.73
2018-10-18T22:32:26.416Z,15.43
2018-10-18T22:34:54.330Z,14.63
2018-10-18T22:37:22.274Z,13.53
2018-10-18T22:39:50.184Z,13.50
2018-10-18T22:42:18.101Z,13.87
2018-10-18T22:44:46.023Z,14.13
2018-10-18T22:47:13.956Z,14.40
2018-10-18T22:49:41.872Z,14.97
2018-10-18T22:52:09.822Z,15.60
2018-10-18T22:54:37.771Z,15.60
2018-10-18T22:57:05.924Z,15.33
2018-10-18T22:59:33.812Z,15.03
2018-10-18T23:02:01.740Z,15.40
2018-10-18T23:04:29.700Z,14.67
2018-10-18T23:06:57.622Z,16.60
2018-10-18T23:09:25.598Z,14.40
2018-10-18T23:11:53.498Z,16.53
2018-10-18T23:14:21.444Z,16.67
2018-10-18T23:16:49.529Z,17.67
2018-10-18T23:19:17.443Z,17.47
2018-10-18T23:21:45.364Z,17.40
2018-10-18T23:24:13.327Z,17.47
2018-10-18T23:26:41.291Z,16.90
2018-10-18T23:29:09.319Z,17.90
2018-10-18T23:31:37.179Z,19.03
2018-10-18T23:34:05.536Z,17.60
2018-10-18T23:36:33.463Z,16.93
2018-10-18T23:39:01.434Z,17.37
2018-10-18T23:41:29.336Z,16.77
2018-10-18T23:43:57.287Z,18.17
2018-10-18T23:46:25.192Z,16.70
2018-10-18T23:48:53.144Z,16.90
2018-10-18T23:51:21.093Z,15.53
2018-10-18T23:53:49.024Z,15.77
2018-10-18T23:56:16.940Z,16.57
2018-10-18T23:58:45.196Z,15.73
